Archival Weather

Annapolis United States Naval

Annapolis United States Naval, Maryland (KNAK)

Report from: Tuesday, June 6, 2023 3:54 PM UTC
Current time: Sunday, April 14, 2024 12:03 PM UTC

Current weather – Weather history – Daily summaries
Weather forecast

Present weatherHaze
Temperature23.9°C (75.0°F)
Dew point10.6°C (51.1°F)
Winds 8 kts (4.1 m/s, 9.2 mph) West (270°)
Wind gusts 16 kts (8.2 m/s, 18.4 mph)
Visibility6 mi. (9.7 km)
Clouds Sky clear
Altimeter29.77 in.Hg (1008 mB)
Relative humidity43 %
Density altitude1,385 ft. (422 m)
Sea-level pressure100.8 kPa (1008 mB, 29.77 in.Hg)
Remarks Fully automated report
System requires maintenance
Automated weather observing station with precipitation discriminator
Flight conditions Visual Meteorological Conditions
Raw dataKNAK 061554Z AUTO 27008G16KT 6SM HZ CLR 24/11 A2977 RMK AO2 SLP082 T02390106 $
An error has occurred. This application may no longer respond until reloaded. Reload 🗙